createdAt,value
2023-04-02T00:00:21.316Z,123.82
2023-04-02T00:01:21.358Z,123.42
2023-04-02T00:02:21.403Z,118.61
2023-04-02T00:03:21.507Z,114.35
2023-04-02T00:04:21.368Z,117.36
2023-04-02T00:05:21.372Z,117.04
2023-04-02T00:06:21.378Z,121.74
2023-04-02T00:07:21.410Z,120.82
2023-04-02T00:08:21.392Z,120.81
2023-04-02T00:09:21.412Z,124.80
2023-04-02T00:10:22.313Z,120.20
2023-04-02T00:11:21.443Z,129.51
2023-04-02T00:12:21.427Z,119.41
2023-04-02T00:13:21.432Z,125.27
2023-04-02T00:14:21.443Z,118.78
2023-04-02T00:15:21.428Z,117.30
2023-04-02T00:16:21.446Z,113.25
2023-04-02T00:17:21.429Z,126.76
2023-04-02T00:18:21.496Z,128.64
2023-04-02T00:19:21.416Z,127.43
2023-04-02T00:20:21.410Z,117.66
2023-04-02T00:21:21.420Z,121.03
2023-04-02T00:22:21.451Z,119.30
2023-04-02T00:23:21.455Z,118.61
2023-04-02T00:24:21.436Z,121.09
2023-04-02T00:25:21.449Z,124.25
2023-04-02T00:26:21.458Z,123.16
2023-04-02T00:27:21.470Z,129.02
2023-04-02T00:28:21.455Z,130.50
2023-04-02T00:29:21.452Z,121.30
2023-04-02T00:30:21.453Z,122.74
2023-04-02T00:31:21.476Z,126.18
2023-04-02T00:32:21.519Z,117.64
2023-04-02T00:33:21.461Z,117.75
2023-04-02T00:34:21.477Z,118.18
2023-04-02T00:35:21.457Z,120.86
2023-04-02T00:36:21.497Z,123.95
2023-04-02T00:37:21.471Z,129.16
2023-04-02T00:38:21.472Z,123.09
2023-04-02T00:39:21.448Z,126.09
2023-04-02T00:40:21.461Z,128.07
2023-04-02T00:41:21.445Z,129.02
2023-04-02T00:42:21.459Z,129.79
2023-04-02T00:43:21.455Z,124.04
2023-04-02T00:44:21.484Z,127.82
2023-04-02T00:45:21.455Z,125.22
2023-04-02T00:46:21.545Z,128.24
2023-04-02T00:47:21.442Z,124.93
2023-04-02T00:48:21.526Z,126.43
2023-04-02T00:49:21.454Z,129.37
2023-04-02T00:50:21.492Z,132.37
2023-04-02T00:51:21.441Z,132.94
2023-04-02T00:52:21.477Z,127.19
2023-04-02T00:53:21.454Z,135.75
2023-04-02T00:54:21.430Z,142.29
2023-04-02T00:55:21.453Z,136.46
2023-04-02T00:56:21.457Z,126.27
2023-04-02T00:57:21.499Z,132.51
2023-04-02T00:58:21.460Z,137.09
2023-04-02T00:59:21.437Z,145.79
2023-04-02T01:00:21.471Z,138.81
2023-04-02T01:01:21.537Z,138.29
2023-04-02T01:02:21.479Z,137.48
2023-04-02T01:03:21.544Z,139.42
2023-04-02T01:04:21.452Z,137.19
2023-04-02T01:05:21.471Z,142.37
2023-04-02T01:06:21.492Z,139.20
2023-04-02T01:07:21.470Z,137.38
2023-04-02T01:08:21.505Z,135.88
2023-04-02T01:09:21.477Z,139.99
2023-04-02T01:10:21.509Z,134.44
2023-04-02T01:11:21.453Z,137.76
2023-04-02T01:12:21.478Z,135.77
2023-04-02T01:13:21.487Z,141.31
2023-04-02T01:14:21.456Z,152.14
2023-04-02T01:15:21.480Z,142.74
2023-04-02T01:16:21.506Z,144.64
2023-04-02T01:17:21.444Z,140.63
2023-04-02T01:18:21.436Z,138.57
2023-04-02T01:19:21.449Z,139.86
2023-04-02T01:20:21.446Z,141.00
2023-04-02T01:21:21.460Z,145.86
2023-04-02T01:22:21.490Z,142.26
2023-04-02T01:23:21.459Z,142.50
2023-04-02T01:24:21.476Z,142.33
2023-04-02T01:25:21.451Z,135.87
2023-04-02T01:26:21.463Z,143.30
2023-04-02T01:27:21.479Z,143.94
2023-04-02T01:28:21.468Z,139.41
2023-04-02T01:29:21.473Z,145.34
2023-04-02T01:30:21.491Z,144.51
2023-04-02T01:31:21.488Z,144.79
2023-04-02T01:32:21.495Z,144.48
2023-04-02T01:33:21.487Z,136.94
2023-04-02T01:34:21.725Z,139.57
2023-04-02T01:35:21.467Z,133.50
2023-04-02T01:36:21.487Z,148.64
2023-04-02T01:37:21.449Z,145.69
2023-04-02T01:38:21.453Z,142.87
2023-04-02T01:39:21.456Z,144.61
2023-04-02T01:40:21.467Z,152.84
2023-04-02T01:41:21.442Z,148.26
2023-04-02T01:42:21.469Z,141.21
2023-04-02T01:43:21.468Z,139.54
2023-04-02T01:44:21.504Z,145.55
2023-04-02T01:45:21.443Z,145.94
2023-04-02T01:46:21.450Z,145.37
2023-04-02T01:47:21.434Z,137.86
2023-04-02T01:48:21.450Z,137.53
2023-04-02T01:49:21.445Z,132.36
2023-04-02T01:50:21.440Z,140.84
2023-04-02T01:51:21.503Z,143.45
2023-04-02T01:52:21.438Z,141.72
2023-04-02T01:53:21.442Z,147.88
2023-04-02T01:54:21.488Z,146.01
2023-04-02T01:55:21.450Z,145.13
2023-04-02T01:56:21.440Z,143.53
2023-04-02T01:57:21.528Z,142.74
2023-04-02T01:58:21.459Z,144.37
2023-04-02T01:59:21.455Z,146.16
2023-04-02T02:00:21.445Z,144.46
2023-04-02T02:01:21.586Z,139.87
2023-04-02T02:02:21.522Z,149.89
2023-04-02T02:03:21.522Z,149.47
2023-04-02T02:04:21.431Z,150.90
2023-04-02T02:05:21.505Z,150.53
2023-04-02T02:06:21.445Z,151.54
2023-04-02T02:07:21.442Z,155.42
2023-04-02T02:08:21.522Z,152.20
2023-04-02T02:09:21.453Z,147.24
2023-04-02T02:10:21.471Z,151.70
2023-04-02T02:11:21.588Z,150.15
2023-04-02T02:12:21.453Z,149.73
2023-04-02T02:13:21.464Z,153.05
2023-04-02T02:14:21.460Z,151.31
2023-04-02T02:15:21.456Z,150.66
2023-04-02T02:16:21.466Z,150.63
2023-04-02T02:17:21.574Z,152.98
2023-04-02T02:18:21.464Z,148.94
2023-04-02T02:19:21.478Z,145.93
2023-04-02T02:20:21.477Z,143.59
2023-04-02T02:21:21.563Z,145.39
2023-04-02T02:22:21.509Z,148.06
2023-04-02T02:23:21.527Z,144.82
2023-04-02T02:24:21.494Z,146.71
2023-04-02T02:25:21.483Z,149.27
2023-04-02T02:26:21.472Z,145.74
2023-04-02T02:27:21.483Z,146.21
2023-04-02T02:28:21.472Z,145.58
2023-04-02T02:29:21.493Z,145.09
2023-04-02T02:30:21.499Z,143.71
2023-04-02T02:31:21.566Z,142.05
2023-04-02T02:32:21.562Z,147.97
2023-04-02T02:33:21.548Z,140.87
2023-04-02T02:34:21.542Z,137.01
2023-04-02T02:35:21.551Z,142.18
2023-04-02T02:36:21.587Z,146.50
2023-04-02T02:37:21.551Z,144.70
2023-04-02T02:38:21.556Z,147.46
2023-04-02T02:39:21.554Z,148.63
2023-04-02T02:40:21.584Z,147.05
2023-04-02T02:41:21.628Z,147.82
2023-04-02T02:42:21.577Z,150.97
2023-04-02T02:43:21.598Z,145.65
2023-04-02T02:44:21.608Z,141.94
2023-04-02T02:45:21.605Z,138.20
2023-04-02T02:46:21.638Z,143.01
2023-04-02T02:47:21.624Z,142.95
2023-04-02T02:48:21.616Z,146.35
2023-04-02T02:49:21.608Z,144.74
2023-04-02T02:50:21.601Z,147.93
2023-04-02T02:51:21.677Z,147.75
2023-04-02T02:52:21.625Z,149.86
2023-04-02T02:53:21.607Z,147.99
2023-04-02T02:54:21.630Z,149.47
2023-04-02T02:55:21.630Z,148.59
2023-04-02T02:56:21.632Z,145.71
2023-04-02T02:57:21.680Z,152.44
2023-04-02T02:58:21.622Z,146.46
2023-04-02T02:59:21.619Z,154.99
2023-04-02T03:00:21.642Z,154.72
2023-04-02T03:01:21.882Z,151.52
2023-04-02T03:02:21.720Z,146.70
2023-04-02T03:03:21.823Z,150.09
2023-04-02T03:04:21.688Z,151.97
2023-04-02T03:05:21.692Z,154.46
2023-04-02T03:06:21.694Z,147.94
2023-04-02T03:07:21.723Z,144.07
2023-04-02T03:08:21.713Z,150.15
2023-04-02T03:09:21.722Z,154.02
2023-04-02T03:10:21.722Z,154.19
2023-04-02T03:11:21.818Z,151.11
2023-04-02T03:12:21.729Z,150.69
2023-04-02T03:13:21.766Z,150.82
2023-04-02T03:14:21.777Z,147.43
2023-04-02T03:15:21.775Z,152.68
2023-04-02T03:16:21.856Z,149.39
2023-04-02T03:17:21.816Z,154.26
2023-04-02T03:18:21.805Z,150.66
2023-04-02T03:19:21.804Z,149.19
2023-04-02T03:20:21.866Z,149.55
2023-04-02T03:21:21.951Z,155.32
2023-04-02T03:22:21.849Z,150.41
2023-04-02T03:23:21.891Z,149.74
2023-04-02T03:24:21.893Z,147.80
2023-04-02T03:25:21.886Z,156.93
2023-04-02T03:26:21.906Z,154.87
2023-04-02T03:27:21.917Z,145.08
2023-04-02T03:28:21.894Z,150.57
2023-04-02T03:29:21.901Z,152.14
2023-04-02T03:30:21.919Z,146.75
2023-04-02T03:31:21.951Z,146.67
2023-04-02T03:32:21.904Z,150.22
2023-04-02T03:33:21.911Z,154.20
2023-04-02T03:34:21.925Z,153.77
2023-04-02T03:35:21.907Z,149.52
2023-04-02T03:36:22.065Z,149.12
2023-04-02T03:37:21.931Z,148.86
2023-04-02T03:38:21.943Z,148.42
2023-04-02T03:39:21.921Z,149.79
2023-04-02T03:40:21.916Z,145.85
2023-04-02T03:41:21.987Z,148.88
2023-04-02T03:42:21.925Z,154.11
2023-04-02T03:43:21.940Z,149.11
2023-04-02T03:44:21.930Z,149.01
2023-04-02T03:45:21.907Z,150.95
2023-04-02T03:46:21.972Z,150.88
2023-04-02T03:47:21.969Z,148.16
2023-04-02T03:48:21.926Z,152.38
2023-04-02T03:49:21.928Z,150.11
2023-04-02T03:50:21.909Z,147.66
2023-04-02T03:51:21.992Z,148.72
2023-04-02T03:52:21.928Z,148.58
2023-04-02T03:53:21.926Z,149.15
2023-04-02T03:54:21.946Z,152.39
2023-04-02T03:55:21.943Z,144.33
2023-04-02T03:56:21.948Z,149.15
2023-04-02T03:57:21.999Z,150.52
2023-04-02T03:58:21.949Z,147.15
2023-04-02T03:59:21.935Z,146.05
2023-04-02T04:00:21.935Z,140.37
2023-04-02T04:01:21.955Z,145.32
2023-04-02T04:02:22.005Z,142.10
2023-04-02T04:03:21.962Z,147.40
2023-04-02T04:04:22.016Z,151.62
2023-04-02T04:05:21.963Z,152.36
2023-04-02T04:06:21.963Z,147.76
2023-04-02T04:07:21.980Z,150.00
2023-04-02T04:08:21.984Z,153.96
2023-04-02T04:09:21.975Z,151.23
2023-04-02T04:10:21.963Z,151.16
2023-04-02T04:11:22.053Z,150.07
2023-04-02T04:12:22.000Z,149.37
2023-04-02T04:13:21.998Z,151.63
2023-04-02T04:14:22.013Z,152.08
2023-04-02T04:15:22.007Z,150.03
2023-04-02T04:16:22.103Z,152.73
2023-04-02T04:17:22.009Z,155.09
2023-04-02T04:18:22.022Z,155.35
2023-04-02T04:19:22.022Z,156.93
2023-04-02T04:20:22.119Z,155.98
2023-04-02T04:21:22.127Z,151.48
2023-04-02T04:22:22.037Z,154.59
2023-04-02T04:23:22.036Z,158.97
2023-04-02T04:24:22.018Z,158.59
2023-04-02T04:25:22.034Z,155.02
2023-04-02T04:26:22.045Z,156.40
2023-04-02T04:27:22.074Z,155.99
2023-04-02T04:28:22.086Z,155.45
2023-04-02T04:29:22.079Z,152.76
2023-04-02T04:30:22.126Z,152.07
2023-04-02T04:31:24.612Z,159.59
2023-04-02T04:32:22.097Z,160.24
2023-04-02T04:33:22.094Z,162.54
2023-04-02T04:34:22.101Z,157.08
2023-04-02T04:35:22.073Z,151.58
2023-04-02T04:36:22.074Z,152.51
2023-04-02T04:37:22.065Z,152.50
2023-04-02T04:38:22.063Z,149.84
2023-04-02T04:39:22.050Z,151.39
2023-04-02T04:40:22.038Z,151.80
2023-04-02T04:41:22.068Z,152.98
2023-04-02T04:42:22.051Z,152.45
2023-04-02T04:43:22.053Z,152.75
2023-04-02T04:44:22.056Z,150.13
2023-04-02T04:45:22.029Z,151.16
2023-04-02T04:46:22.112Z,150.48
2023-04-02T04:47:22.004Z,151.37
2023-04-02T04:48:22.418Z,150.55
2023-04-02T04:49:21.990Z,145.01
2023-04-02T04:50:22.001Z,148.89
2023-04-02T04:51:21.981Z,146.33
2023-04-02T04:52:21.964Z,147.29
2023-04-02T04:53:21.972Z,146.22
2023-04-02T04:54:21.967Z,153.89
2023-04-02T04:55:21.963Z,150.19
2023-04-02T04:56:21.934Z,152.38
2023-04-02T04:57:21.983Z,149.64
2023-04-02T04:58:21.928Z,151.58
2023-04-02T04:59:21.912Z,153.52
2023-04-02T05:00:21.932Z,152.96
2023-04-02T05:01:21.934Z,148.25
2023-04-02T05:02:21.912Z,153.73
2023-04-02T05:03:21.903Z,152.22
2023-04-02T05:04:21.934Z,150.91
2023-04-02T05:05:21.910Z,148.74
2023-04-02T05:06:21.858Z,154.07
2023-04-02T05:07:21.871Z,150.35
2023-04-02T05:08:21.857Z,149.17
2023-04-02T05:09:21.856Z,147.71
2023-04-02T05:10:21.887Z,149.77
2023-04-02T05:11:21.829Z,150.24
2023-04-02T05:12:21.838Z,147.21
2023-04-02T05:13:21.837Z,152.20
2023-04-02T05:14:21.819Z,153.55
2023-04-02T05:15:21.807Z,150.63
2023-04-02T05:16:21.823Z,151.06
2023-04-02T05:17:21.833Z,149.82
2023-04-02T05:18:21.810Z,152.24
2023-04-02T05:19:21.772Z,156.87
2023-04-02T05:20:21.842Z,156.27
2023-04-02T05:21:21.749Z,153.57
2023-04-02T05:22:21.770Z,152.00
2023-04-02T05:23:21.753Z,151.49
2023-04-02T05:24:21.731Z,151.94
2023-04-02T05:25:21.726Z,152.92
2023-04-02T05:26:21.728Z,149.04
2023-04-02T05:27:21.725Z,147.49
2023-04-02T05:28:21.720Z,151.51
2023-04-02T05:29:21.688Z,146.74
2023-04-02T05:30:21.807Z,146.19
2023-04-02T05:31:21.747Z,150.71
2023-04-02T05:32:21.669Z,149.68
2023-04-02T05:33:21.689Z,146.18
2023-04-02T05:34:21.652Z,148.66
2023-04-02T05:35:21.654Z,150.87
2023-04-02T05:36:21.731Z,149.45
2023-04-02T05:37:21.684Z,148.75
2023-04-02T05:38:21.664Z,145.33
2023-04-02T05:39:21.641Z,149.19
2023-04-02T05:40:21.664Z,145.55
2023-04-02T05:41:21.628Z,154.66
2023-04-02T05:42:21.618Z,150.68
2023-04-02T05:43:21.600Z,150.91
2023-04-02T05:44:21.610Z,150.15
2023-04-02T05:45:21.596Z,152.20
2023-04-02T05:46:21.612Z,153.51
2023-04-02T05:47:21.624Z,150.68
2023-04-02T05:48:21.597Z,150.27
2023-04-02T05:49:21.572Z,150.97
2023-04-02T05:50:21.579Z,147.49
2023-04-02T05:51:21.536Z,150.96
2023-04-02T05:52:21.537Z,152.31
2023-04-02T05:53:21.560Z,146.97
2023-04-02T05:54:21.535Z,146.77
2023-04-02T05:55:21.536Z,149.25
2023-04-02T05:56:21.500Z,155.67
2023-04-02T05:57:23.121Z,150.74
2023-04-02T05:59:22.481Z,151.03
2023-04-02T06:00:21.495Z,151.83
2023-04-02T06:01:21.490Z,151.18
2023-04-02T06:02:21.490Z,152.71
2023-04-02T06:03:21.525Z,152.41
2023-04-02T06:04:21.458Z,150.72
2023-04-02T06:05:21.446Z,150.53
2023-04-02T06:06:21.432Z,155.61
2023-04-02T06:07:21.422Z,152.56
2023-04-02T06:08:21.420Z,156.69
2023-04-02T06:09:21.430Z,159.12
2023-04-02T06:10:22.857Z,161.95
2023-04-02T06:11:21.410Z,162.19
2023-04-02T06:12:21.410Z,156.36
2023-04-02T06:13:21.377Z,158.30
2023-04-02T06:14:21.404Z,158.33
2023-04-02T06:15:21.398Z,159.97
2023-04-02T06:16:21.382Z,163.26
2023-04-02T06:17:21.398Z,164.71
2023-04-02T06:18:21.365Z,160.61
2023-04-02T06:19:21.958Z,160.39
2023-04-02T06:20:21.357Z,160.82
2023-04-02T06:21:21.319Z,160.88
2023-04-02T06:22:21.322Z,158.75
2023-04-02T06:23:21.363Z,156.69
2023-04-02T06:24:21.292Z,162.80
2023-04-02T06:25:21.301Z,162.30
2023-04-02T06:26:21.298Z,166.64
2023-04-02T06:27:21.315Z,164.68
2023-04-02T06:28:21.326Z,162.72
2023-04-02T06:29:21.251Z,158.74
2023-04-02T06:30:21.261Z,163.39
2023-04-02T06:31:21.312Z,163.78
2023-04-02T06:32:21.246Z,166.33
2023-04-02T06:33:21.279Z,166.97
2023-04-02T06:34:21.208Z,165.64
2023-04-02T06:35:21.216Z,171.11
2023-04-02T06:36:21.261Z,170.78
2023-04-02T06:37:21.208Z,168.78
2023-04-02T06:38:21.184Z,171.79
2023-04-02T06:39:21.182Z,169.46
2023-04-02T06:40:21.180Z,169.56
2023-04-02T06:41:21.155Z,165.08
2023-04-02T06:42:21.174Z,171.53
2023-04-02T06:43:21.155Z,170.06
2023-04-02T06:44:21.162Z,171.14
2023-04-02T06:45:21.124Z,169.08
2023-04-02T06:46:21.167Z,166.84
2023-04-02T06:47:21.108Z,169.71
2023-04-02T06:48:21.122Z,169.47
2023-04-02T06:49:21.110Z,171.10
2023-04-02T06:50:21.086Z,169.27
2023-04-02T06:51:21.079Z,168.93
2023-04-02T06:52:21.080Z,163.88
2023-04-02T06:53:21.086Z,164.52
2023-04-02T06:54:21.098Z,168.83
2023-04-02T06:55:21.102Z,167.96
2023-04-02T06:56:21.047Z,166.09
2023-04-02T06:57:21.076Z,166.66
2023-04-02T06:58:21.044Z,169.04
2023-04-02T06:59:21.033Z,167.15
2023-04-02T07:00:21.020Z,165.94
2023-04-02T07:01:21.044Z,167.56
2023-04-02T07:02:21.028Z,165.44
2023-04-02T07:03:21.019Z,163.79
2023-04-02T07:04:21.036Z,163.81
2023-04-02T07:05:21.033Z,163.88
2023-04-02T07:06:21.049Z,167.35
2023-04-02T07:07:21.056Z,165.20
2023-04-02T07:08:21.039Z,166.42
2023-04-02T07:09:21.037Z,166.79
2023-04-02T07:10:21.075Z,170.33
2023-04-02T07:11:21.128Z,167.93
2023-04-02T07:12:21.094Z,168.32
2023-04-02T07:13:21.135Z,170.20
2023-04-02T07:14:21.184Z,172.92
2023-04-02T07:15:21.245Z,174.76
2023-04-02T07:16:21.407Z,175.39
2023-04-02T07:17:21.424Z,178.27
2023-04-02T07:18:21.454Z,177.73
2023-04-02T07:19:21.512Z,182.44
2023-04-02T07:20:21.565Z,181.85
2023-04-02T07:21:21.603Z,182.30
2023-04-02T07:22:21.634Z,179.33
2023-04-02T07:23:21.707Z,178.87
2023-04-02T07:24:21.768Z,180.66
2023-04-02T07:25:21.805Z,179.80
2023-04-02T07:26:21.889Z,177.18
2023-04-02T07:27:21.939Z,176.94
2023-04-02T07:28:22.871Z,176.03
2023-04-02T07:29:22.037Z,174.48
2023-04-02T07:30:22.097Z,175.85
2023-04-02T07:31:22.164Z,177.16
2023-04-02T07:32:22.192Z,177.04
2023-04-02T07:33:22.245Z,176.09
2023-04-02T07:34:22.272Z,177.12
2023-04-02T07:35:22.330Z,173.91
2023-04-02T07:36:22.416Z,173.09
2023-04-02T07:37:22.426Z,174.03
2023-04-02T07:38:22.459Z,173.38
2023-04-02T07:39:22.553Z,171.12
2023-04-02T07:40:22.572Z,171.76
2023-04-02T07:41:22.581Z,171.99
2023-04-02T07:42:22.640Z,172.67
2023-04-02T07:43:22.712Z,173.99
2023-04-02T07:44:22.737Z,172.03
2023-04-02T07:45:22.759Z,171.54
2023-04-02T07:46:22.838Z,169.51
2023-04-02T07:47:22.878Z,171.38
2023-04-02T07:48:22.877Z,174.74
2023-04-02T07:49:22.891Z,174.44
2023-04-02T07:50:23.018Z,174.20
2023-04-02T07:51:22.971Z,175.70
2023-04-02T07:52:22.990Z,176.40
2023-04-02T07:53:23.009Z,177.08
2023-04-02T07:54:23.005Z,178.66
2023-04-02T07:55:23.018Z,177.28
2023-04-02T07:56:23.047Z,179.95
2023-04-02T07:57:23.095Z,179.09
2023-04-02T07:58:23.083Z,179.00
2023-04-02T07:59:23.073Z,179.81
2023-04-02T08:00:23.083Z,180.40
2023-04-02T08:01:23.088Z,180.90
2023-04-02T08:02:23.295Z,182.23
2023-04-02T08:03:23.196Z,184.43
2023-04-02T08:04:23.354Z,183.20
2023-04-02T08:05:23.154Z,183.93
2023-04-02T08:06:23.137Z,184.98
2023-04-02T08:07:23.152Z,181.11
2023-04-02T08:08:23.171Z,180.31
2023-04-02T08:09:23.156Z,178.05
2023-04-02T08:10:23.207Z,177.80
2023-04-02T08:11:23.235Z,177.26
2023-04-02T08:12:23.220Z,171.87
2023-04-02T08:13:23.211Z,170.86
2023-04-02T08:14:23.216Z,174.73
2023-04-02T08:15:23.200Z,174.33
2023-04-02T08:16:23.252Z,173.94
2023-04-02T08:17:23.338Z,173.17
2023-04-02T08:18:23.210Z,171.80
2023-04-02T08:19:23.227Z,169.59
2023-04-02T08:20:23.225Z,173.09
2023-04-02T08:21:23.248Z,166.94
2023-04-02T08:22:23.252Z,173.36
2023-04-02T08:23:23.257Z,166.03
2023-04-02T08:24:23.285Z,168.09
2023-04-02T08:25:23.287Z,160.59
2023-04-02T08:26:23.318Z,160.73
2023-04-02T08:27:23.347Z,158.45
2023-04-02T08:28:23.412Z,157.08
2023-04-02T08:29:23.470Z,157.11
2023-04-02T08:30:23.514Z,156.46
2023-04-02T08:31:23.669Z,157.41
2023-04-02T08:32:23.640Z,155.67
2023-04-02T08:33:23.720Z,154.09
2023-04-02T08:34:23.752Z,151.17
2023-04-02T08:35:23.801Z,155.38
2023-04-02T08:36:23.875Z,152.83
2023-04-02T08:37:23.918Z,146.60
2023-04-02T08:38:23.961Z,151.20
2023-04-02T08:39:24.015Z,149.40
2023-04-02T08:40:24.099Z,148.72
2023-04-02T08:41:24.124Z,143.57
2023-04-02T08:42:24.185Z,145.75
2023-04-02T08:43:25.112Z,147.84
2023-04-02T08:44:24.264Z,145.73
2023-04-02T08:45:25.614Z,149.27
2023-04-02T08:46:24.347Z,147.52
2023-04-02T08:47:24.399Z,143.91
2023-04-02T08:48:24.428Z,150.14
2023-04-02T08:49:24.448Z,147.51
2023-04-02T08:50:24.481Z,146.18
2023-04-02T08:51:24.519Z,147.25
2023-04-02T08:52:24.574Z,142.83
2023-04-02T08:53:24.601Z,143.93
2023-04-02T08:54:24.608Z,141.66
2023-04-02T08:55:24.631Z,141.12
2023-04-02T08:56:24.660Z,143.02
2023-04-02T08:57:24.744Z,138.21
2023-04-02T08:58:24.747Z,140.54
2023-04-02T08:59:24.790Z,137.31
2023-04-02T09:00:24.817Z,137.16
2023-04-02T09:01:24.879Z,137.02
2023-04-02T09:02:24.952Z,132.96
2023-04-02T09:03:24.947Z,131.60
2023-04-02T09:04:25.065Z,129.32
2023-04-02T09:05:25.058Z,129.17
2023-04-02T09:06:25.108Z,129.26
2023-04-02T09:07:25.155Z,129.11
2023-04-02T09:08:25.200Z,132.86
2023-04-02T09:09:25.288Z,130.96
2023-04-02T09:10:25.314Z,130.30
2023-04-02T09:11:25.402Z,130.53
2023-04-02T09:12:25.439Z,127.24
2023-04-02T09:13:25.486Z,131.92
2023-04-02T09:14:25.545Z,129.09
2023-04-02T09:15:25.615Z,132.52
2023-04-02T09:16:25.681Z,131.10
2023-04-02T09:17:25.739Z,129.11
2023-04-02T09:18:26.547Z,124.25
2023-04-02T09:19:25.802Z,126.17
2023-04-02T09:20:25.850Z,128.37
2023-04-02T09:21:25.870Z,129.24
2023-04-02T09:22:25.929Z,128.27
2023-04-02T09:23:25.990Z,120.95
2023-04-02T09:24:26.561Z,123.20
2023-04-02T09:25:26.068Z,121.17
2023-04-02T09:26:26.084Z,123.38
2023-04-02T09:27:26.146Z,127.63
2023-04-02T09:28:26.184Z,117.53
2023-04-02T09:29:26.243Z,116.26
2023-04-02T09:30:26.319Z,120.05
2023-04-02T09:31:26.368Z,119.34
2023-04-02T09:32:26.421Z,112.75
2023-04-02T09:33:26.489Z,118.01
2023-04-02T09:34:26.510Z,114.86
2023-04-02T09:35:27.139Z,117.44
2023-04-02T09:36:26.669Z,117.95
2023-04-02T09:37:26.675Z,114.33
2023-04-02T09:38:26.730Z,118.67
2023-04-02T09:39:26.801Z,118.81
2023-04-02T09:40:26.847Z,115.72
2023-04-02T09:41:26.899Z,111.85
2023-04-02T09:42:26.953Z,115.52
2023-04-02T09:43:27.034Z,111.53
2023-04-02T09:44:27.079Z,119.09
2023-04-02T09:45:27.162Z,115.27
2023-04-02T09:46:27.226Z,117.44
2023-04-02T09:47:27.323Z,108.14
2023-04-02T09:48:27.324Z,106.05
2023-04-02T09:49:27.388Z,100.53
2023-04-02T09:50:27.432Z,111.12
2023-04-02T09:51:27.487Z,110.65
2023-04-02T09:52:27.582Z,111.17
2023-04-02T09:53:27.585Z,110.27
2023-04-02T09:54:27.654Z,103.04
2023-04-02T09:55:27.713Z,97.41
2023-04-02T09:56:27.762Z,104.56
2023-04-02T09:57:27.847Z,104.38
2023-04-02T09:58:27.869Z,105.02
2023-04-02T09:59:27.943Z,100.16
2023-04-02T10:01:28.029Z,100.32
2023-04-02T10:02:28.088Z,101.32
2023-04-02T10:03:28.062Z,100.84
2023-04-02T10:04:28.114Z,112.40
2023-04-02T10:05:39.987Z,101.00
2023-04-02T10:06:29.073Z,101.28
2023-04-02T10:07:28.050Z,101.75
2023-04-02T10:08:28.068Z,105.52
2023-04-02T10:09:28.028Z,107.82
2023-04-02T10:10:28.049Z,106.64
2023-04-02T10:11:36.639Z,100.56
2023-04-02T10:12:29.016Z,100.83
2023-04-02T10:13:28.000Z,101.53
2023-04-02T10:14:28.007Z,101.45
2023-04-02T10:15:27.987Z,97.86
2023-04-02T10:16:28.068Z,106.08
2023-04-02T10:17:27.989Z,103.79
2023-04-02T10:18:27.969Z,100.66
2023-04-02T10:19:27.968Z,104.31
2023-04-02T10:20:28.521Z,104.06
2023-04-02T10:21:27.943Z,107.52
2023-04-02T10:22:27.950Z,106.39
2023-04-02T10:23:27.950Z,93.95
2023-04-02T10:24:27.949Z,96.28
2023-04-02T10:25:27.940Z,101.44
2023-04-02T10:26:27.926Z,108.28
2023-04-02T10:27:27.936Z,100.22
2023-04-02T10:28:27.893Z,103.92
2023-04-02T10:29:27.891Z,105.85
2023-04-02T10:30:27.906Z,106.65
2023-04-02T10:31:28.024Z,96.95
2023-04-02T10:32:27.923Z,94.95
2023-04-02T10:33:27.910Z,103.21
2023-04-02T10:34:27.925Z,105.07
2023-04-02T10:35:27.978Z,103.53
2023-04-02T10:36:27.934Z,101.41
2023-04-02T10:37:27.964Z,97.47
2023-04-02T10:38:27.996Z,99.58
2023-04-02T10:39:28.023Z,98.09
2023-04-02T10:40:28.029Z,107.31
2023-04-02T10:41:28.050Z,108.33
2023-04-02T10:42:28.119Z,106.66
2023-04-02T10:43:28.198Z,103.19
2023-04-02T10:44:28.236Z,91.86
2023-04-02T10:45:28.263Z,97.74
2023-04-02T10:46:28.358Z,99.42
2023-04-02T10:47:28.396Z,97.57
2023-04-02T10:48:28.410Z,108.39
2023-04-02T10:49:28.495Z,97.09
2023-04-02T10:50:28.520Z,94.32
2023-04-02T10:51:28.577Z,96.76
2023-04-02T10:52:28.652Z,84.88
2023-04-02T10:53:28.704Z,90.35
2023-04-02T10:54:28.714Z,100.97
2023-04-02T10:55:28.773Z,94.38
2023-04-02T10:56:35.178Z,100.01
2023-04-02T10:57:29.843Z,96.74
2023-04-02T10:58:28.799Z,100.08
2023-04-02T10:59:28.777Z,100.55
2023-04-02T11:00:28.778Z,103.02
2023-04-02T11:01:28.800Z,94.14
2023-04-02T11:02:28.921Z,82.52
2023-04-02T11:03:28.855Z,92.92
2023-04-02T11:04:28.742Z,83.31
2023-04-02T11:05:28.726Z,94.64
2023-04-02T11:06:28.747Z,94.53
2023-04-02T11:07:28.718Z,79.52
2023-04-02T11:08:28.751Z,85.59
2023-04-02T11:09:28.770Z,80.04
2023-04-02T11:10:28.765Z,89.61
2023-04-02T11:11:28.762Z,91.36
2023-04-02T11:12:28.762Z,89.50
2023-04-02T11:13:28.776Z,89.54
2023-04-02T11:14:28.837Z,93.06
2023-04-02T11:15:28.959Z,85.50
2023-04-02T11:16:29.040Z,93.61
2023-04-02T11:17:28.965Z,93.40
2023-04-02T11:18:28.961Z,89.93
2023-04-02T11:19:28.936Z,89.25
2023-04-02T11:20:29.053Z,84.68
2023-04-02T11:21:29.047Z,88.53
2023-04-02T11:22:29.056Z,86.71
2023-04-02T11:23:29.050Z,79.86
2023-04-02T11:24:29.062Z,79.77
2023-04-02T11:25:29.067Z,82.80
2023-04-02T11:26:29.081Z,84.40
2023-04-02T11:27:29.090Z,72.43
2023-04-02T11:28:29.089Z,73.52
2023-04-02T11:29:29.099Z,84.75
2023-04-02T11:30:29.158Z,89.07
2023-04-02T11:31:29.146Z,80.37
2023-04-02T11:32:29.198Z,94.38
2023-04-02T11:33:36.636Z,91.90
2023-04-02T11:34:30.171Z,91.39
2023-04-02T11:35:29.164Z,76.52
2023-04-02T11:36:29.136Z,84.17
2023-04-02T11:37:29.127Z,81.55
2023-04-02T11:38:29.117Z,81.38
2023-04-02T11:39:29.100Z,78.44
2023-04-02T11:40:29.094Z,81.99
2023-04-02T11:41:29.109Z,80.27
2023-04-02T11:42:29.081Z,70.34
2023-04-02T11:43:29.071Z,69.12
2023-04-02T11:44:29.096Z,72.51
2023-04-02T11:45:29.066Z,66.17
2023-04-02T11:46:29.074Z,84.00
2023-04-02T11:47:29.077Z,75.73
2023-04-02T11:48:29.045Z,80.32
2023-04-02T11:49:29.055Z,82.75
2023-04-02T11:50:29.035Z,66.04
2023-04-02T11:51:29.020Z,64.04
2023-04-02T11:52:29.026Z,60.50
2023-04-02T11:53:28.999Z,67.93
2023-04-02T11:54:29.006Z,70.65
2023-04-02T11:55:28.980Z,63.23
2023-04-02T11:56:28.978Z,60.40
2023-04-02T11:57:29.012Z,64.41
2023-04-02T11:58:28.976Z,69.75
2023-04-02T11:59:29.002Z,84.83
2023-04-02T12:00:28.957Z,83.80
2023-04-02T12:01:28.960Z,96.69
2023-04-02T12:02:29.082Z,110.46
2023-04-02T12:03:28.924Z,104.09
2023-04-02T12:04:28.922Z,95.88
2023-04-02T12:05:29.010Z,96.70
2023-04-02T12:06:28.928Z,94.69
2023-04-02T12:07:28.923Z,72.07
2023-04-02T12:08:28.914Z,79.31
2023-04-02T12:09:28.910Z,91.49
2023-04-02T12:10:28.935Z,90.95
2023-04-02T12:11:28.918Z,90.88
2023-04-02T12:12:28.964Z,77.75
2023-04-02T12:13:28.955Z,83.65
2023-04-02T12:14:28.940Z,61.81
2023-04-02T12:15:28.951Z,78.01
2023-04-02T12:16:28.989Z,77.06
2023-04-02T12:17:29.028Z,96.59
2023-04-02T12:18:29.009Z,96.77
2023-04-02T12:19:29.027Z,84.22
2023-04-02T12:20:29.046Z,92.82
2023-04-02T12:21:29.056Z,74.82
2023-04-02T12:22:29.073Z,89.93
2023-04-02T12:23:29.125Z,79.03
2023-04-02T12:24:29.120Z,71.59
2023-04-02T12:25:29.163Z,93.24
2023-04-02T12:26:29.148Z,83.22
2023-04-02T12:27:29.173Z,75.21
2023-04-02T12:28:29.204Z,89.15
2023-04-02T12:29:29.210Z,96.60
2023-04-02T12:30:29.237Z,107.55
2023-04-02T12:31:29.316Z,97.94
2023-04-02T12:32:30.027Z,77.63
2023-04-02T12:33:29.252Z,73.12